createdAt,value
2019-03-06T00:00:33.461Z,0.00
2019-03-06T00:01:35.625Z,0.00
2019-03-06T00:02:33.424Z,0.00
2019-03-06T00:03:33.408Z,0.00
2019-03-06T00:04:33.406Z,0.00
2019-03-06T00:05:33.393Z,0.00
2019-03-06T00:06:33.402Z,0.00
2019-03-06T00:07:33.367Z,0.00
2019-03-06T00:08:33.350Z,0.00
2019-03-06T00:09:33.335Z,0.00
2019-03-06T00:10:33.337Z,0.00
2019-03-06T00:11:33.339Z,0.00
2019-03-06T00:12:33.370Z,0.00
2019-03-06T00:13:33.304Z,0.00
2019-03-06T00:14:33.290Z,0.00
2019-03-06T00:15:33.278Z,0.00
2019-03-06T00:16:33.264Z,0.00
2019-03-06T00:17:33.279Z,0.00
2019-03-06T00:18:33.249Z,0.00
2019-03-06T00:19:33.236Z,0.00
2019-03-06T00:20:33.222Z,0.00
2019-03-06T00:21:33.212Z,0.00
2019-03-06T00:22:33.224Z,0.00
2019-03-06T00:23:33.203Z,0.00
2019-03-06T00:24:33.182Z,0.00
2019-03-06T00:25:33.173Z,0.00
2019-03-06T00:26:33.155Z,0.00
2019-03-06T00:27:33.145Z,0.00
2019-03-06T00:28:33.161Z,0.00
2019-03-06T00:29:33.129Z,0.00
2019-03-06T00:30:33.155Z,0.00
2019-03-06T00:31:33.110Z,0.00
2019-03-06T00:32:33.095Z,0.00
2019-03-06T00:33:33.086Z,0.00
2019-03-06T00:34:33.103Z,0.00
2019-03-06T00:35:33.074Z,0.00
2019-03-06T00:36:33.052Z,0.00
2019-03-06T00:37:33.045Z,0.00
2019-03-06T00:38:33.034Z,0.00
2019-03-06T00:39:33.023Z,0.00
2019-03-06T00:40:33.031Z,0.00
2019-03-06T00:41:33.010Z,0.00
2019-03-06T00:42:32.995Z,0.00
2019-03-06T00:43:32.979Z,0.00
2019-03-06T00:44:33.010Z,0.00
2019-03-06T00:45:32.951Z,0.00
2019-03-06T00:46:32.968Z,0.00
2019-03-06T00:47:32.942Z,0.00
2019-03-06T00:48:32.924Z,0.00
2019-03-06T00:49:32.910Z,0.00
2019-03-06T00:50:32.897Z,0.00
2019-03-06T00:51:32.909Z,0.00
2019-03-06T00:52:32.908Z,0.00
2019-03-06T00:53:32.868Z,0.00
2019-03-06T00:54:32.865Z,0.00
2019-03-06T00:55:32.864Z,0.00
2019-03-06T00:56:32.839Z,0.00
2019-03-06T00:57:32.835Z,0.00
2019-03-06T00:58:32.861Z,0.00
2019-03-06T00:59:32.805Z,0.00
2019-03-06T01:00:32.798Z,0.00
2019-03-06T01:01:32.789Z,0.00
2019-03-06T01:02:32.780Z,0.00
2019-03-06T01:03:32.786Z,0.00
2019-03-06T01:04:32.782Z,0.00
2019-03-06T01:05:32.741Z,0.00
2019-03-06T01:06:32.728Z,0.00
2019-03-06T01:07:32.717Z,0.00
2019-03-06T01:08:32.744Z,0.00
2019-03-06T01:09:32.701Z,0.00
2019-03-06T01:10:32.682Z,0.00
2019-03-06T01:11:32.706Z,0.00
2019-03-06T01:12:32.662Z,0.00
2019-03-06T01:13:32.689Z,0.00
2019-03-06T01:14:32.650Z,0.00
2019-03-06T01:15:32.641Z,0.00
2019-03-06T01:16:32.615Z,0.00
2019-03-06T01:17:32.604Z,0.00
2019-03-06T01:18:32.619Z,0.00
2019-03-06T01:19:32.583Z,0.00
2019-03-06T01:20:32.618Z,0.00
2019-03-06T01:21:32.585Z,0.00
2019-03-06T01:22:32.566Z,0.00
2019-03-06T01:23:32.562Z,0.00
2019-03-06T01:24:32.530Z,0.00
2019-03-06T01:25:32.517Z,0.00
2019-03-06T01:26:32.515Z,0.00
2019-03-06T01:27:32.504Z,0.00
2019-03-06T01:28:32.514Z,0.00
2019-03-06T01:29:32.475Z,0.00
2019-03-06T01:30:32.471Z,0.00
2019-03-06T01:31:32.455Z,0.00
2019-03-06T01:32:32.452Z,0.00
2019-03-06T01:33:32.448Z,0.00
2019-03-06T01:34:32.448Z,0.00
2019-03-06T01:35:32.426Z,0.00
2019-03-06T01:36:32.407Z,0.00
2019-03-06T01:37:32.399Z,0.00
2019-03-06T01:38:32.380Z,0.00
2019-03-06T01:39:32.399Z,0.00
2019-03-06T01:40:32.366Z,0.00
2019-03-06T01:41:32.363Z,0.00
2019-03-06T01:42:32.337Z,0.00
2019-03-06T01:43:32.334Z,0.00
2019-03-06T01:44:32.325Z,0.00
2019-03-06T01:45:32.333Z,0.00
2019-03-06T01:46:32.321Z,0.00
2019-03-06T01:47:32.322Z,0.00
2019-03-06T01:48:32.288Z,0.00
2019-03-06T01:49:32.262Z,0.00
2019-03-06T01:50:32.282Z,0.00
2019-03-06T01:51:32.244Z,0.00
2019-03-06T01:52:32.238Z,0.00
2019-03-06T01:53:32.236Z,0.00
2019-03-06T01:54:32.216Z,0.00
2019-03-06T01:55:32.231Z,0.00
2019-03-06T01:56:32.220Z,0.00
2019-03-06T01:57:32.180Z,0.00
2019-03-06T01:58:32.179Z,0.00
2019-03-06T01:59:32.166Z,0.00
2019-03-06T02:00:32.146Z,0.00
2019-03-06T02:01:32.167Z,0.00
2019-03-06T02:02:32.128Z,0.00
2019-03-06T02:03:32.121Z,0.00
2019-03-06T02:04:32.101Z,0.00
2019-03-06T02:05:32.112Z,0.00
2019-03-06T02:06:32.081Z,0.00
2019-03-06T02:07:32.097Z,0.00
2019-03-06T02:08:32.065Z,0.00
2019-03-06T02:09:32.062Z,0.00
2019-03-06T02:10:32.038Z,0.00
2019-03-06T02:11:32.046Z,0.00
2019-03-06T02:12:32.053Z,0.00
2019-03-06T02:13:32.012Z,0.00
2019-03-06T02:14:32.003Z,0.00
2019-03-06T02:15:32.012Z,0.00
2019-03-06T02:16:31.975Z,0.00
2019-03-06T02:17:31.979Z,0.00
2019-03-06T02:18:32.048Z,0.00
2019-03-06T02:19:31.948Z,0.00
2019-03-06T02:20:31.938Z,0.00
2019-03-06T02:21:31.936Z,0.00
2019-03-06T02:22:31.910Z,0.00
2019-03-06T02:23:31.926Z,0.00
2019-03-06T02:24:31.889Z,0.00
2019-03-06T02:25:31.883Z,0.00
2019-03-06T02:26:31.875Z,0.00
2019-03-06T02:27:31.859Z,0.00
2019-03-06T02:28:31.848Z,0.00
2019-03-06T02:29:31.869Z,0.00
2019-03-06T02:30:31.824Z,0.00
2019-03-06T02:31:31.823Z,0.00
2019-03-06T02:32:31.825Z,0.00
2019-03-06T02:33:31.797Z,0.00
2019-03-06T02:34:31.782Z,0.00
2019-03-06T02:35:31.812Z,0.00
2019-03-06T02:36:31.759Z,0.00
2019-03-06T02:37:31.808Z,0.00
2019-03-06T02:38:31.761Z,0.00
2019-03-06T02:39:31.727Z,0.00
2019-03-06T02:40:31.726Z,0.00
2019-03-06T02:41:31.743Z,0.00
2019-03-06T02:42:31.695Z,0.00
2019-03-06T02:43:31.704Z,0.00
2019-03-06T02:44:31.673Z,0.00
2019-03-06T02:45:31.674Z,0.00
2019-03-06T02:46:31.654Z,0.00
2019-03-06T02:47:31.666Z,0.00
2019-03-06T02:48:31.633Z,0.00
2019-03-06T02:49:31.633Z,0.00
2019-03-06T02:50:31.615Z,0.00
2019-03-06T02:51:31.603Z,0.00
2019-03-06T02:52:31.632Z,0.00
2019-03-06T02:53:31.592Z,0.00
2019-03-06T02:54:31.575Z,0.00
2019-03-06T02:55:31.582Z,0.00
2019-03-06T02:56:31.545Z,0.00
2019-03-06T02:57:31.561Z,0.00
2019-03-06T02:58:31.536Z,0.00
2019-03-06T02:59:31.522Z,0.00
2019-03-06T03:00:31.512Z,0.00
2019-03-06T03:01:31.496Z,0.00
2019-03-06T03:02:31.496Z,0.00
2019-03-06T03:03:31.500Z,0.00
2019-03-06T03:04:31.466Z,0.00
2019-03-06T03:05:31.459Z,0.00
2019-03-06T03:06:31.436Z,0.00
2019-03-06T03:07:31.444Z,0.00
2019-03-06T03:08:31.422Z,0.00
2019-03-06T03:09:31.430Z,0.00
2019-03-06T03:10:31.401Z,0.00
2019-03-06T03:11:31.388Z,0.00
2019-03-06T03:12:31.375Z,0.00
2019-03-06T03:13:31.374Z,0.00
2019-03-06T03:14:31.385Z,0.00
2019-03-06T03:15:31.345Z,0.00
2019-03-06T03:16:31.330Z,0.00
2019-03-06T03:17:31.326Z,0.00
2019-03-06T03:18:31.326Z,0.00
2019-03-06T03:19:31.327Z,0.00
2019-03-06T03:20:31.296Z,0.00
2019-03-06T03:21:31.292Z,0.00
2019-03-06T03:22:31.280Z,0.00
2019-03-06T03:23:31.267Z,0.00
2019-03-06T03:24:31.253Z,0.00
2019-03-06T03:25:31.270Z,0.00
2019-03-06T03:26:31.233Z,0.00
2019-03-06T03:27:31.308Z,0.00
2019-03-06T03:28:31.219Z,0.00
2019-03-06T03:29:31.205Z,0.00
2019-03-06T03:30:31.217Z,0.00
2019-03-06T03:31:31.201Z,0.00
2019-03-06T03:32:31.179Z,0.00
2019-03-06T03:33:31.159Z,0.00
2019-03-06T03:34:31.158Z,0.00
2019-03-06T03:35:31.155Z,0.00
2019-03-06T03:36:31.148Z,0.00
2019-03-06T03:37:31.135Z,0.00
2019-03-06T03:38:31.113Z,0.00
2019-03-06T03:39:31.094Z,0.00
2019-03-06T03:40:31.090Z,0.00
2019-03-06T03:41:31.067Z,0.00
2019-03-06T03:42:31.089Z,0.00
2019-03-06T03:43:31.060Z,0.00
2019-03-06T03:44:31.037Z,0.00
2019-03-06T03:45:31.031Z,0.00
2019-03-06T03:46:31.019Z,0.00
2019-03-06T03:47:31.001Z,0.00
2019-03-06T03:48:31.008Z,0.00
2019-03-06T03:49:30.993Z,0.00
2019-03-06T03:50:30.971Z,0.00
2019-03-06T03:51:30.967Z,0.00
2019-03-06T03:52:30.977Z,0.00
2019-03-06T03:53:30.952Z,0.00
2019-03-06T03:54:30.954Z,0.00
2019-03-06T03:55:30.926Z,0.00
2019-03-06T03:56:30.907Z,0.00
2019-03-06T03:57:30.899Z,0.00
2019-03-06T03:58:30.894Z,0.00
2019-03-06T03:59:30.904Z,0.00
2019-03-06T04:00:30.867Z,0.00
2019-03-06T04:01:30.862Z,0.00
2019-03-06T04:02:30.848Z,0.00
2019-03-06T04:03:30.835Z,0.00
2019-03-06T04:04:30.828Z,0.00
2019-03-06T04:05:30.843Z,0.00
2019-03-06T04:06:30.813Z,0.00
2019-03-06T04:07:30.820Z,0.00
2019-03-06T04:08:30.778Z,0.00
2019-03-06T04:09:30.768Z,0.00
2019-03-06T04:10:30.763Z,0.00
2019-03-06T04:11:30.891Z,0.00
2019-03-06T04:12:30.736Z,0.00
2019-03-06T04:13:30.738Z,0.00
2019-03-06T04:14:30.730Z,0.00
2019-03-06T04:15:30.712Z,0.00
2019-03-06T04:16:30.696Z,0.00
2019-03-06T04:17:30.713Z,0.00
2019-03-06T04:18:30.673Z,0.00
2019-03-06T04:19:30.662Z,0.00
2019-03-06T04:20:30.659Z,0.00
2019-03-06T04:21:30.643Z,0.00
2019-03-06T04:22:30.635Z,0.00
2019-03-06T04:23:30.697Z,0.00
2019-03-06T04:24:30.609Z,0.00
2019-03-06T04:25:30.607Z,0.00
2019-03-06T04:26:30.603Z,0.00
2019-03-06T04:27:30.593Z,0.00
2019-03-06T04:28:30.595Z,0.00
2019-03-06T04:29:30.617Z,0.00
2019-03-06T04:30:30.546Z,0.00
2019-03-06T04:31:30.544Z,0.00
2019-03-06T04:32:30.533Z,0.00
2019-03-06T04:33:30.518Z,0.00
2019-03-06T04:34:30.508Z,0.00
2019-03-06T04:35:30.552Z,0.00
2019-03-06T04:36:30.490Z,0.00
2019-03-06T04:37:30.474Z,0.00
2019-03-06T04:38:30.460Z,0.00
2019-03-06T04:39:30.453Z,0.00
2019-03-06T04:40:30.459Z,0.00
2019-03-06T04:41:30.448Z,0.00
2019-03-06T04:42:30.419Z,0.00
2019-03-06T04:43:30.403Z,0.00
2019-03-06T04:44:30.394Z,0.00
2019-03-06T04:45:30.381Z,0.00
2019-03-06T04:46:30.394Z,0.00
2019-03-06T04:47:30.375Z,0.00
2019-03-06T04:48:30.354Z,0.00
2019-03-06T04:49:30.345Z,0.00
2019-03-06T04:50:30.360Z,0.00
2019-03-06T04:51:30.315Z,0.00
2019-03-06T04:52:30.316Z,0.00
2019-03-06T04:53:30.296Z,0.00
2019-03-06T04:54:30.285Z,0.00
2019-03-06T04:55:30.282Z,0.00
2019-03-06T04:56:30.288Z,0.00
2019-03-06T04:57:30.253Z,0.00
2019-03-06T04:58:30.250Z,0.00
2019-03-06T04:59:30.234Z,0.00
2019-03-06T05:00:30.235Z,0.00
2019-03-06T05:01:30.248Z,0.00
2019-03-06T05:02:30.209Z,0.00
2019-03-06T05:03:30.196Z,0.00
2019-03-06T05:04:30.179Z,0.00
2019-03-06T05:05:30.176Z,0.00
2019-03-06T05:06:30.175Z,0.00
2019-03-06T05:07:30.171Z,0.00
2019-03-06T05:08:30.140Z,0.00
2019-03-06T05:09:30.134Z,0.00
2019-03-06T05:10:30.122Z,0.00
2019-03-06T05:11:30.125Z,0.00
2019-03-06T05:12:30.107Z,0.00
2019-03-06T05:13:30.108Z,0.00
2019-03-06T05:14:30.082Z,0.00
2019-03-06T05:15:30.070Z,4.00
2019-03-06T05:16:30.065Z,4.00
2019-03-06T05:17:30.050Z,4.00
2019-03-06T05:18:30.048Z,4.00
2019-03-06T05:19:30.054Z,4.00
2019-03-06T05:20:30.007Z,4.00
2019-03-06T05:21:29.999Z,4.00
2019-03-06T05:22:29.995Z,4.00
2019-03-06T05:23:29.982Z,4.00
2019-03-06T05:24:29.970Z,4.00
2019-03-06T05:25:29.978Z,4.00
2019-03-06T05:26:29.959Z,4.00
2019-03-06T05:27:29.984Z,0.00
2019-03-06T05:28:29.932Z,0.00
2019-03-06T05:29:29.918Z,0.00
2019-03-06T05:30:29.928Z,0.00
2019-03-06T05:31:29.893Z,0.00
2019-03-06T05:32:29.881Z,0.00
2019-03-06T05:33:29.872Z,0.00
2019-03-06T05:34:29.874Z,4.00
2019-03-06T05:35:29.860Z,4.00
2019-03-06T05:36:29.880Z,4.00
2019-03-06T05:37:29.834Z,0.00
2019-03-06T05:38:29.816Z,4.00
2019-03-06T05:39:29.808Z,4.00
2019-03-06T05:40:29.806Z,4.00
2019-03-06T05:41:29.813Z,4.00
2019-03-06T05:42:29.782Z,8.00
2019-03-06T05:43:29.771Z,8.00
2019-03-06T05:44:29.757Z,8.00
2019-03-06T05:45:29.744Z,12.00
2019-03-06T05:46:29.767Z,12.00
2019-03-06T05:47:29.731Z,12.00
2019-03-06T05:48:29.720Z,16.00
2019-03-06T05:49:29.729Z,20.00
2019-03-06T05:50:29.693Z,20.00
2019-03-06T05:51:29.687Z,28.00
2019-03-06T05:52:29.696Z,28.00
2019-03-06T05:53:29.663Z,32.00
2019-03-06T05:54:29.658Z,32.00
2019-03-06T05:55:29.651Z,36.00
2019-03-06T05:56:29.666Z,40.00
2019-03-06T05:57:29.615Z,40.00
2019-03-06T05:58:29.624Z,44.00
2019-03-06T05:59:29.603Z,48.00
2019-03-06T06:00:29.600Z,52.00
2019-03-06T06:01:29.573Z,60.00
2019-03-06T06:02:29.587Z,68.00
2019-03-06T06:03:29.595Z,72.00
2019-03-06T06:04:29.543Z,80.00
2019-03-06T06:05:29.531Z,88.00
2019-03-06T06:06:29.532Z,96.00
2019-03-06T06:07:29.510Z,104.00
2019-03-06T06:08:29.508Z,112.00
2019-03-06T06:09:29.529Z,124.00
2019-03-06T06:10:29.489Z,132.00
2019-03-06T06:11:29.473Z,144.00
2019-03-06T06:12:29.459Z,156.00
2019-03-06T06:13:30.925Z,172.00
2019-03-06T06:14:29.455Z,180.00
2019-03-06T06:15:29.428Z,188.00
2019-03-06T06:16:29.424Z,200.00
2019-03-06T06:17:29.410Z,204.00
2019-03-06T06:18:29.400Z,212.00
2019-03-06T06:19:29.428Z,220.00
2019-03-06T06:20:29.372Z,228.00
2019-03-06T06:21:29.372Z,236.00
2019-03-06T06:22:29.364Z,252.00
2019-03-06T06:23:29.356Z,260.00
2019-03-06T06:24:29.369Z,276.00
2019-03-06T06:25:29.339Z,296.00
2019-03-06T06:26:29.318Z,316.00
2019-03-06T06:27:29.309Z,336.00
2019-03-06T06:28:29.352Z,356.00
2019-03-06T06:29:29.282Z,380.00
2019-03-06T06:30:29.311Z,408.00
2019-03-06T06:31:29.258Z,432.00
2019-03-06T06:32:29.253Z,456.00
2019-03-06T06:33:29.235Z,480.00
2019-03-06T06:34:29.229Z,500.00
2019-03-06T06:35:29.235Z,520.00
2019-03-06T06:36:29.210Z,532.00
2019-03-06T06:37:29.210Z,540.00
2019-03-06T06:38:29.183Z,544.00
2019-03-06T06:39:29.180Z,548.00
2019-03-06T06:40:29.181Z,544.00
2019-03-06T06:41:29.154Z,540.00
2019-03-06T06:42:29.144Z,540.00
2019-03-06T06:43:29.142Z,540.00
2019-03-06T06:44:29.126Z,544.00
2019-03-06T06:45:29.130Z,556.00
2019-03-06T06:46:29.113Z,556.00
2019-03-06T06:47:29.098Z,540.00
2019-03-06T06:48:29.083Z,536.00
2019-03-06T06:49:29.101Z,552.00
2019-03-06T06:50:29.104Z,572.00
2019-03-06T06:51:29.057Z,584.00
2019-03-06T06:52:29.035Z,596.00
2019-03-06T06:53:29.025Z,608.00
2019-03-06T06:54:29.022Z,608.00
2019-03-06T06:55:29.027Z,612.00
2019-03-06T06:56:29.027Z,632.00
2019-03-06T06:57:28.987Z,628.00
2019-03-06T06:58:31.526Z,636.00
2019-03-06T06:59:28.970Z,668.00
2019-03-06T07:00:28.956Z,680.00
2019-03-06T07:01:28.976Z,716.00
2019-03-06T07:02:28.930Z,732.00
2019-03-06T07:03:28.928Z,744.00
2019-03-06T07:04:28.919Z,760.00
2019-03-06T07:05:28.908Z,784.00
2019-03-06T07:06:28.890Z,804.00
2019-03-06T07:07:28.910Z,808.00
2019-03-06T07:08:28.881Z,820.00
2019-03-06T07:09:28.874Z,828.00
2019-03-06T07:10:28.857Z,852.00
2019-03-06T07:11:28.842Z,880.00
2019-03-06T07:12:28.825Z,908.00
2019-03-06T07:13:28.856Z,940.00
2019-03-06T07:14:28.813Z,956.00
2019-03-06T07:15:28.800Z,960.00
2019-03-06T07:16:28.797Z,956.00
2019-03-06T07:17:28.783Z,980.00
2019-03-06T07:18:28.788Z,1016.00
2019-03-06T07:19:28.757Z,1020.00
2019-03-06T07:20:28.749Z,1024.00
2019-03-06T07:21:28.780Z,1028.00
2019-03-06T07:22:28.808Z,1012.00
2019-03-06T07:23:28.716Z,1020.00
2019-03-06T07:24:28.724Z,1040.00
2019-03-06T07:25:28.695Z,1048.00
2019-03-06T07:26:28.678Z,1072.00
2019-03-06T07:27:28.674Z,1108.00
2019-03-06T07:28:28.665Z,1156.00
2019-03-06T07:29:28.688Z,1164.00
2019-03-06T07:30:28.638Z,1200.00
2019-03-06T07:31:28.631Z,1244.00
2019-03-06T07:32:28.617Z,1276.00
2019-03-06T07:33:28.614Z,1336.00
2019-03-06T07:34:28.619Z,1392.00
2019-03-06T07:35:28.624Z,1432.00
2019-03-06T07:36:28.582Z,1464.00
2019-03-06T07:37:29.041Z,1484.00
2019-03-06T07:38:28.571Z,1508.00
2019-03-06T07:39:28.545Z,1544.00
2019-03-06T07:40:28.538Z,1572.00
2019-03-06T07:41:28.546Z,1588.00
2019-03-06T07:42:28.515Z,1576.00
2019-03-06T07:43:28.524Z,1556.00
2019-03-06T07:44:30.494Z,1552.00
2019-03-06T07:45:28.488Z,1548.00
2019-03-06T07:46:28.509Z,1544.00
2019-03-06T07:47:28.460Z,1524.00
2019-03-06T07:48:28.456Z,1528.00
2019-03-06T07:49:28.437Z,1580.00
2019-03-06T07:50:28.437Z,1632.00
2019-03-06T07:51:28.424Z,1652.00
2019-03-06T07:52:28.459Z,1660.00
2019-03-06T07:53:28.401Z,1668.00
2019-03-06T07:54:28.399Z,1640.00
2019-03-06T07:55:28.380Z,1632.00
2019-03-06T07:56:28.382Z,1608.00
2019-03-06T07:57:28.376Z,1604.00
2019-03-06T07:58:28.350Z,1640.00
2019-03-06T07:59:28.334Z,1644.00
2019-03-06T08:00:28.326Z,1624.00
2019-03-06T08:01:28.327Z,1584.00
2019-03-06T08:02:28.310Z,1544.00
2019-03-06T08:03:28.310Z,1520.00
2019-03-06T08:04:28.287Z,1464.00
2019-03-06T08:05:28.278Z,1440.00
2019-03-06T08:06:28.273Z,1400.00
2019-03-06T08:07:28.267Z,1376.00
2019-03-06T08:08:28.274Z,1336.00
2019-03-06T08:09:28.227Z,1268.00
2019-03-06T08:10:28.228Z,1164.00
2019-03-06T08:11:28.207Z,1132.00
2019-03-06T08:12:28.200Z,1192.00
2019-03-06T08:13:28.197Z,1432.00
2019-03-06T08:14:28.197Z,1652.00
2019-03-06T08:15:28.184Z,1776.00
2019-03-06T08:16:28.160Z,1772.00
2019-03-06T08:17:28.142Z,1792.00
2019-03-06T08:18:28.160Z,1720.00
2019-03-06T08:19:28.131Z,1640.00
2019-03-06T08:20:28.125Z,1628.00
2019-03-06T08:21:28.109Z,1724.00
2019-03-06T08:22:28.091Z,1932.00
2019-03-06T08:23:28.089Z,2164.00
2019-03-06T08:24:28.096Z,2448.00
2019-03-06T08:25:28.106Z,2440.00
2019-03-06T08:26:28.057Z,2500.00
2019-03-06T08:27:28.055Z,2560.00
2019-03-06T08:28:28.043Z,2656.00
2019-03-06T08:29:28.017Z,2432.00
2019-03-06T08:30:28.030Z,2120.00
2019-03-06T08:31:28.001Z,1988.00
2019-03-06T08:32:27.986Z,1988.00
2019-03-06T08:33:27.977Z,1896.00
2019-03-06T08:34:27.979Z,1936.00
2019-03-06T08:35:27.979Z,2064.00
2019-03-06T08:36:27.942Z,2024.00
2019-03-06T08:37:27.938Z,1932.00
2019-03-06T08:38:27.930Z,1856.00
2019-03-06T08:39:27.911Z,1776.00
2019-03-06T08:40:27.919Z,1900.00
2019-03-06T08:41:27.920Z,1956.00
2019-03-06T08:42:27.886Z,2048.00
2019-03-06T08:43:27.907Z,2628.00
2019-03-06T08:44:27.872Z,2740.00
2019-03-06T08:45:27.885Z,2756.00
2019-03-06T08:46:27.860Z,2676.00
2019-03-06T08:47:27.850Z,2520.00
2019-03-06T08:48:27.822Z,2652.00
2019-03-06T08:49:27.815Z,2560.00
2019-03-06T08:50:27.803Z,2680.00
2019-03-06T08:51:27.791Z,3044.00
2019-03-06T08:52:27.800Z,3032.00
2019-03-06T08:53:27.768Z,3072.00
2019-03-06T08:54:27.802Z,3108.00
2019-03-06T08:55:27.764Z,3064.00
2019-03-06T08:56:27.746Z,3024.00
2019-03-06T08:57:27.722Z,3012.00
2019-03-06T08:58:27.775Z,3008.00
2019-03-06T08:59:27.697Z,2980.00
2019-03-06T09:00:27.687Z,2884.00
2019-03-06T09:01:27.691Z,2996.00
2019-03-06T09:02:27.665Z,3064.00
2019-03-06T09:03:27.653Z,3132.00
2019-03-06T09:04:27.676Z,3252.00
2019-03-06T09:05:27.631Z,3316.00
2019-03-06T09:06:27.634Z,3276.00
2019-03-06T09:07:27.609Z,3532.00
2019-03-06T09:08:27.607Z,3540.00
2019-03-06T09:09:27.621Z,3248.00
2019-03-06T09:10:27.608Z,2952.00
2019-03-06T09:11:27.569Z,3092.00
2019-03-06T09:12:27.570Z,3012.00
2019-03-06T09:13:27.552Z,3316.00
2019-03-06T09:14:27.565Z,3508.00
2019-03-06T09:15:27.535Z,3952.00
2019-03-06T09:16:27.522Z,4188.00
2019-03-06T09:17:27.513Z,4432.00
2019-03-06T09:18:27.502Z,4620.00
2019-03-06T09:19:27.497Z,4564.00
2019-03-06T09:20:36.027Z,4472.00
2019-03-06T09:21:28.467Z,4360.00
2019-03-06T09:22:27.459Z,4444.00
2019-03-06T09:23:27.442Z,4528.00
2019-03-06T09:24:27.427Z,4612.00
2019-03-06T09:25:27.425Z,4488.00
2019-03-06T09:26:27.440Z,4664.00
2019-03-06T09:27:27.406Z,4784.00
2019-03-06T09:28:27.386Z,4592.00
2019-03-06T09:29:27.377Z,4256.00
2019-03-06T09:30:27.369Z,3700.00
2019-03-06T09:31:27.361Z,3364.00
2019-03-06T09:32:27.365Z,3636.00
2019-03-06T09:33:27.332Z,3884.00
2019-03-06T09:34:28.299Z,4252.00
2019-03-06T09:35:27.309Z,4224.00
2019-03-06T09:36:27.296Z,4248.00
2019-03-06T09:37:27.305Z,4388.00
2019-03-06T09:38:27.295Z,4472.00
2019-03-06T09:39:27.265Z,4680.00
2019-03-06T09:40:27.254Z,4040.00
2019-03-06T09:41:27.247Z,4892.00
2019-03-06T09:42:27.245Z,4992.00
2019-03-06T09:43:27.246Z,4912.00
2019-03-06T09:44:27.219Z,4952.00
2019-03-06T09:45:27.198Z,4504.00
2019-03-06T09:46:27.193Z,4868.00
2019-03-06T09:47:27.176Z,4908.00
2019-03-06T09:48:27.215Z,4784.00
2019-03-06T09:49:27.187Z,4912.00
2019-03-06T09:50:27.147Z,5032.00
2019-03-06T09:51:27.139Z,4568.00
2019-03-06T09:52:27.121Z,4324.00
2019-03-06T09:53:27.118Z,5016.00
2019-03-06T09:54:27.125Z,4788.00
2019-03-06T09:55:27.094Z,4896.00
2019-03-06T09:56:27.105Z,4540.00
2019-03-06T09:57:27.074Z,4444.00
2019-03-06T09:58:27.054Z,4796.00
2019-03-06T09:59:27.051Z,4912.00
2019-03-06T10:00:27.069Z,4840.00
2019-03-06T10:01:27.028Z,4036.00
2019-03-06T10:02:27.026Z,4744.00
2019-03-06T10:03:27.008Z,5140.00
2019-03-06T10:04:27.005Z,5528.00
2019-03-06T10:05:26.982Z,5528.00
2019-03-06T10:06:26.998Z,5612.00
2019-03-06T10:07:26.958Z,5624.00
2019-03-06T10:08:26.960Z,5352.00
2019-03-06T10:09:26.969Z,5492.00
2019-03-06T10:10:26.921Z,5384.00
2019-03-06T10:11:26.944Z,5388.00
2019-03-06T10:12:26.911Z,5228.00
2019-03-06T10:13:26.924Z,5084.00
2019-03-06T10:14:26.881Z,5288.00
2019-03-06T10:15:26.877Z,5344.00
2019-03-06T10:16:26.858Z,5380.00
2019-03-06T10:17:26.865Z,5356.00
2019-03-06T10:18:26.973Z,5228.00
2019-03-06T10:19:26.831Z,5392.00
2019-03-06T10:20:26.812Z,5352.00
2019-03-06T10:21:26.858Z,5676.00
2019-03-06T10:22:26.796Z,5400.00
2019-03-06T10:23:26.789Z,4600.00
2019-03-06T10:24:26.786Z,5212.00
2019-03-06T10:25:30.164Z,4804.00
2019-03-06T10:26:28.887Z,4772.00
2019-03-06T10:27:26.736Z,5680.00
2019-03-06T10:28:27.970Z,5488.00
2019-03-06T10:29:26.777Z,5268.00
2019-03-06T10:30:26.717Z,5212.00
2019-03-06T10:31:26.697Z,5476.00
2019-03-06T10:32:26.729Z,5760.00
2019-03-06T10:33:26.701Z,5500.00
2019-03-06T10:34:26.664Z,5364.00
2019-03-06T10:35:26.650Z,5488.00
2019-03-06T10:36:26.647Z,5516.00
2019-03-06T10:37:26.641Z,5348.00
2019-03-06T10:38:26.637Z,5228.00
2019-03-06T10:39:26.610Z,5256.00
2019-03-06T10:40:26.589Z,5340.00
2019-03-06T10:41:26.582Z,5424.00
2019-03-06T10:42:26.587Z,5348.00
2019-03-06T10:43:26.582Z,5016.00
2019-03-06T10:44:29.785Z,5300.00
2019-03-06T10:45:26.610Z,5336.00
2019-03-06T10:46:26.526Z,5284.00
2019-03-06T10:47:26.513Z,5496.00
2019-03-06T10:48:26.538Z,5624.00
2019-03-06T10:49:26.519Z,5664.00
2019-03-06T10:50:28.000Z,5724.00
2019-03-06T10:51:27.481Z,5740.00
2019-03-06T10:52:26.473Z,5668.00
2019-03-06T10:53:26.473Z,5604.00
2019-03-06T10:54:26.465Z,5628.00
2019-03-06T10:55:26.435Z,5704.00
2019-03-06T10:56:26.424Z,5832.00
2019-03-06T10:57:26.406Z,5888.00
2019-03-06T10:58:26.408Z,5948.00
2019-03-06T10:59:26.380Z,5924.00
2019-03-06T11:00:26.379Z,5892.00
2019-03-06T11:01:26.363Z,5900.00
2019-03-06T11:02:26.362Z,5920.00
2019-03-06T11:03:26.363Z,5912.00
2019-03-06T11:04:26.344Z,5928.00
2019-03-06T11:05:26.329Z,5928.00
2019-03-06T11:06:26.312Z,5948.00
2019-03-06T11:07:26.292Z,5956.00
2019-03-06T11:08:26.282Z,6020.00
2019-03-06T11:09:26.304Z,6064.00
2019-03-06T11:10:26.699Z,6116.00
2019-03-06T11:11:26.257Z,6092.00
2019-03-06T11:12:26.247Z,6028.00
2019-03-06T11:13:26.254Z,5988.00
2019-03-06T11:14:26.247Z,5980.00
2019-03-06T11:15:26.216Z,6012.00
2019-03-06T11:16:26.200Z,6036.00
2019-03-06T11:17:26.202Z,6044.00
2019-03-06T11:18:26.207Z,6024.00
2019-03-06T11:19:26.172Z,5948.00
2019-03-06T11:20:26.158Z,5852.00
2019-03-06T11:21:26.145Z,5836.00
2019-03-06T11:22:26.142Z,5836.00
2019-03-06T11:23:26.152Z,5808.00
2019-03-06T11:24:26.113Z,5748.00
2019-03-06T11:25:26.096Z,5704.00
2019-03-06T11:26:26.087Z,5652.00
2019-03-06T11:27:26.075Z,5580.00
2019-03-06T11:28:26.073Z,5512.00
2019-03-06T11:29:26.104Z,5456.00
2019-03-06T11:30:26.058Z,5464.00
2019-03-06T11:31:26.041Z,5488.00
2019-03-06T11:32:26.020Z,5468.00
2019-03-06T11:33:26.011Z,5368.00
2019-03-06T11:34:26.021Z,5196.00
2019-03-06T11:35:26.001Z,5028.00
2019-03-06T11:36:25.981Z,4940.00
2019-03-06T11:37:25.971Z,4936.00
2019-03-06T11:38:25.955Z,4988.00
2019-03-06T11:39:25.951Z,5120.00
2019-03-06T11:40:25.964Z,5240.00
2019-03-06T11:41:25.951Z,5324.00
2019-03-06T11:42:25.922Z,5380.00
2019-03-06T11:43:25.918Z,5424.00
2019-03-06T11:44:25.897Z,5480.00
2019-03-06T11:45:25.886Z,5492.00
2019-03-06T11:46:25.905Z,5436.00
2019-03-06T11:47:25.867Z,5348.00
2019-03-06T11:48:25.862Z,5256.00
2019-03-06T11:49:25.841Z,5252.00
2019-03-06T11:50:25.827Z,5324.00
2019-03-06T11:51:25.850Z,5448.00
2019-03-06T11:52:25.813Z,5576.00
2019-03-06T11:53:25.793Z,5668.00
2019-03-06T11:54:25.814Z,5632.00
2019-03-06T11:55:25.786Z,5512.00
2019-03-06T11:56:25.772Z,5408.00
2019-03-06T11:57:25.773Z,5340.00
2019-03-06T11:58:25.749Z,5312.00
2019-03-06T11:59:25.732Z,5272.00
2019-03-06T12:00:25.725Z,5216.00
2019-03-06T12:01:25.844Z,5172.00
2019-03-06T12:02:25.712Z,5164.00
2019-03-06T12:03:25.762Z,5200.00
2019-03-06T12:04:25.682Z,5244.00
2019-03-06T12:05:25.683Z,5252.00
2019-03-06T12:06:25.699Z,5216.00
2019-03-06T12:07:25.658Z,5092.00
2019-03-06T12:08:25.664Z,5012.00
2019-03-06T12:09:25.669Z,4928.00
2019-03-06T12:10:25.624Z,4912.00
2019-03-06T12:11:25.609Z,4848.00
2019-03-06T12:12:25.593Z,4808.00
2019-03-06T12:13:25.674Z,4724.00
2019-03-06T12:14:25.575Z,4620.00
2019-03-06T12:15:25.648Z,4504.00
2019-03-06T12:16:25.553Z,4400.00
2019-03-06T12:17:25.543Z,4256.00
2019-03-06T12:18:25.537Z,4072.00
2019-03-06T12:19:25.539Z,3908.00
2019-03-06T12:20:25.513Z,3796.00
2019-03-06T12:21:25.525Z,3664.00
2019-03-06T12:22:25.488Z,3516.00
2019-03-06T12:23:25.586Z,3420.00
2019-03-06T12:24:25.468Z,3400.00
2019-03-06T12:25:25.455Z,3420.00
2019-03-06T12:26:25.444Z,3472.00
2019-03-06T12:27:25.446Z,3508.00
2019-03-06T12:28:25.416Z,3452.00
2019-03-06T12:29:25.432Z,3380.00
2019-03-06T12:30:25.423Z,3256.00
2019-03-06T12:31:25.389Z,3124.00
2019-03-06T12:32:27.188Z,3136.00
2019-03-06T12:33:25.367Z,3096.00
2019-03-06T12:34:25.375Z,2936.00
2019-03-06T12:35:25.356Z,2828.00
2019-03-06T12:36:25.352Z,2908.00
2019-03-06T12:37:25.324Z,2952.00
2019-03-06T12:38:25.314Z,2924.00
2019-03-06T12:39:25.316Z,2800.00
2019-03-06T12:40:25.317Z,2744.00